sensor_id;sensor_type;location;lat;lon;timestamp;P1;durP1;ratioP1;P2;durP2;ratioP2
35971;SDS011;22052;0.000;0.000;2022-12-20T00:01:15;9.68;;;3.80;;
35971;SDS011;22052;0.000;0.000;2022-12-20T00:03:47;6.43;;;3.63;;
35971;SDS011;22052;0.000;0.000;2022-12-20T00:06:15;12.23;;;4.32;;
35971;SDS011;22052;0.000;0.000;2022-12-20T00:08:44;8.57;;;4.50;;
35971;SDS011;22052;0.000;0.000;2022-12-20T00:11:13;11.65;;;3.90;;
35971;SDS011;22052;0.000;0.000;2022-12-20T00:13:40;9.90;;;3.90;;
35971;SDS011;22052;0.000;0.000;2022-12-20T00:19:19;8.20;;;3.72;;
35971;SDS011;22052;0.000;0.000;2022-12-20T00:21:47;7.50;;;3.88;;
35971;SDS011;22052;0.000;0.000;2022-12-20T00:24:15;9.80;;;4.10;;
35971;SDS011;22052;0.000;0.000;2022-12-20T00:26:45;7.80;;;3.70;;
35971;SDS011;22052;0.000;0.000;2022-12-20T00:29:13;8.20;;;3.90;;
35971;SDS011;22052;0.000;0.000;2022-12-20T00:31:40;9.73;;;3.70;;
35971;SDS011;22052;0.000;0.000;2022-12-20T00:34:09;9.18;;;3.63;;
35971;SDS011;22052;0.000;0.000;2022-12-20T00:36:36;10.15;;;4.00;;
35971;SDS011;22052;0.000;0.000;2022-12-20T00:39:06;8.43;;;3.90;;
35971;SDS011;22052;0.000;0.000;2022-12-20T00:41:33;7.22;;;3.10;;
35971;SDS011;22052;0.000;0.000;2022-12-20T00:44:01;9.00;;;3.90;;
35971;SDS011;22052;0.000;0.000;2022-12-20T00:46:29;8.05;;;3.63;;
35971;SDS011;22052;0.000;0.000;2022-12-20T00:48:56;6.55;;;3.67;;
35971;SDS011;22052;0.000;0.000;2022-12-20T00:51:26;9.32;;;3.60;;
35971;SDS011;22052;0.000;0.000;2022-12-20T00:53:57;8.75;;;3.97;;
35971;SDS011;22052;0.000;0.000;2022-12-20T00:56:28;7.28;;;3.60;;
35971;SDS011;22052;0.000;0.000;2022-12-20T00:58:57;8.85;;;3.35;;
35971;SDS011;22052;0.000;0.000;2022-12-20T01:01:27;10.65;;;3.80;;
35971;SDS011;22052;0.000;0.000;2022-12-20T01:03:55;8.07;;;3.30;;
35971;SDS011;22052;0.000;0.000;2022-12-20T01:06:23;9.30;;;3.67;;
35971;SDS011;22052;0.000;0.000;2022-12-20T01:08:51;8.35;;;3.70;;
35971;SDS011;22052;0.000;0.000;2022-12-20T01:11:21;6.45;;;3.38;;
35971;SDS011;22052;0.000;0.000;2022-12-20T01:13:50;7.03;;;3.50;;
35971;SDS011;22052;0.000;0.000;2022-12-20T01:16:20;13.98;;;4.22;;
35971;SDS011;22052;0.000;0.000;2022-12-20T01:18:47;6.75;;;3.28;;
35971;SDS011;22052;0.000;0.000;2022-12-20T01:21:16;7.40;;;3.45;;
35971;SDS011;22052;0.000;0.000;2022-12-20T01:23:43;7.63;;;3.60;;
35971;SDS011;22052;0.000;0.000;2022-12-20T01:26:14;8.57;;;4.03;;
35971;SDS011;22052;0.000;0.000;2022-12-20T01:28:43;7.13;;;3.47;;
35971;SDS011;22052;0.000;0.000;2022-12-20T01:31:15;7.00;;;3.30;;
35971;SDS011;22052;0.000;0.000;2022-12-20T01:33:43;5.35;;;3.17;;
35971;SDS011;22052;0.000;0.000;2022-12-20T01:36:12;7.70;;;3.75;;
35971;SDS011;22052;0.000;0.000;2022-12-20T01:38:40;6.72;;;3.88;;
35971;SDS011;22052;0.000;0.000;2022-12-20T01:41:07;6.82;;;2.97;;
35971;SDS011;22052;0.000;0.000;2022-12-20T01:46:11;8.68;;;3.38;;
35971;SDS011;22052;0.000;0.000;2022-12-20T01:48:43;8.55;;;3.55;;
35971;SDS011;22052;0.000;0.000;2022-12-20T01:53:40;6.95;;;3.50;;
35971;SDS011;22052;0.000;0.000;2022-12-20T01:56:14;6.80;;;3.47;;
35971;SDS011;22052;0.000;0.000;2022-12-20T01:58:45;6.57;;;3.40;;
35971;SDS011;22052;0.000;0.000;2022-12-20T02:01:16;6.15;;;3.63;;
35971;SDS011;22052;0.000;0.000;2022-12-20T02:03:44;6.82;;;3.00;;
35971;SDS011;22052;0.000;0.000;2022-12-20T02:06:18;6.50;;;3.33;;
35971;SDS011;22052;0.000;0.000;2022-12-20T02:08:47;6.35;;;3.40;;
35971;SDS011;22052;0.000;0.000;2022-12-20T02:11:23;7.18;;;3.60;;
35971;SDS011;22052;0.000;0.000;2022-12-20T02:14:00;6.50;;;3.10;;
35971;SDS011;22052;0.000;0.000;2022-12-20T02:16:44;6.97;;;3.38;;
35971;SDS011;22052;0.000;0.000;2022-12-20T02:19:19;7.65;;;3.72;;
35971;SDS011;22052;0.000;0.000;2022-12-20T02:24:46;7.43;;;3.42;;
35971;SDS011;22052;0.000;0.000;2022-12-20T02:27:26;6.28;;;3.45;;
35971;SDS011;22052;0.000;0.000;2022-12-20T02:30:02;5.68;;;3.10;;
35971;SDS011;22052;0.000;0.000;2022-12-20T02:34:57;6.50;;;3.17;;
35971;SDS011;22052;0.000;0.000;2022-12-20T02:37:25;5.97;;;3.20;;
35971;SDS011;22052;0.000;0.000;2022-12-20T02:39:55;5.43;;;3.17;;
35971;SDS011;22052;0.000;0.000;2022-12-20T02:42:24;6.95;;;3.38;;
35971;SDS011;22052;0.000;0.000;2022-12-20T02:44:57;7.15;;;3.53;;
35971;SDS011;22052;0.000;0.000;2022-12-20T02:48:02;5.68;;;3.20;;
35971;SDS011;22052;0.000;0.000;2022-12-20T02:50:40;5.55;;;2.65;;
35971;SDS011;22052;0.000;0.000;2022-12-20T02:53:13;6.13;;;3.30;;
35971;SDS011;22052;0.000;0.000;2022-12-20T02:55:50;5.93;;;3.35;;
35971;SDS011;22052;0.000;0.000;2022-12-20T02:58:22;5.10;;;3.10;;
35971;SDS011;22052;0.000;0.000;2022-12-20T03:04:08;6.85;;;2.65;;
35971;SDS011;22052;0.000;0.000;2022-12-20T03:09:29;6.40;;;3.20;;
35971;SDS011;22052;0.000;0.000;2022-12-20T03:11:57;5.82;;;3.25;;
35971;SDS011;22052;0.000;0.000;2022-12-20T03:14:25;5.40;;;2.85;;
35971;SDS011;22052;0.000;0.000;2022-12-20T03:16:53;5.60;;;2.83;;
35971;SDS011;22052;0.000;0.000;2022-12-20T03:19:23;5.57;;;3.05;;
35971;SDS011;22052;0.000;0.000;2022-12-20T03:21:51;5.97;;;2.90;;
35971;SDS011;22052;0.000;0.000;2022-12-20T03:24:18;5.93;;;2.95;;
35971;SDS011;22052;0.000;0.000;2022-12-20T03:26:46;4.97;;;3.20;;
35971;SDS011;22052;0.000;0.000;2022-12-20T03:29:13;7.13;;;3.33;;
35971;SDS011;22052;0.000;0.000;2022-12-20T03:31:41;5.95;;;2.90;;
35971;SDS011;22052;0.000;0.000;2022-12-20T03:34:08;6.55;;;2.95;;
35971;SDS011;22052;0.000;0.000;2022-12-20T03:36:37;6.00;;;2.85;;
35971;SDS011;22052;0.000;0.000;2022-12-20T03:39:05;5.43;;;3.15;;
35971;SDS011;22052;0.000;0.000;2022-12-20T03:41:33;6.30;;;2.88;;
35971;SDS011;22052;0.000;0.000;2022-12-20T03:44:01;5.32;;;2.78;;
35971;SDS011;22052;0.000;0.000;2022-12-20T03:46:29;5.35;;;3.00;;
35971;SDS011;22052;0.000;0.000;2022-12-20T03:48:57;5.85;;;3.40;;
35971;SDS011;22052;0.000;0.000;2022-12-20T03:51:24;6.45;;;2.97;;
35971;SDS011;22052;0.000;0.000;2022-12-20T03:53:51;5.72;;;3.05;;
35971;SDS011;22052;0.000;0.000;2022-12-20T03:56:19;6.18;;;3.15;;
35971;SDS011;22052;0.000;0.000;2022-12-20T03:58:46;6.90;;;3.08;;
35971;SDS011;22052;0.000;0.000;2022-12-20T04:01:21;5.75;;;3.15;;
35971;SDS011;22052;0.000;0.000;2022-12-20T04:03:49;6.03;;;3.30;;
35971;SDS011;22052;0.000;0.000;2022-12-20T04:06:19;5.95;;;3.00;;
35971;SDS011;22052;0.000;0.000;2022-12-20T04:08:46;5.43;;;2.88;;
35971;SDS011;22052;0.000;0.000;2022-12-20T04:11:14;6.45;;;3.25;;
35971;SDS011;22052;0.000;0.000;2022-12-20T04:13:49;4.95;;;2.67;;
35971;SDS011;22052;0.000;0.000;2022-12-20T04:16:18;6.20;;;3.47;;
35971;SDS011;22052;0.000;0.000;2022-12-20T04:18:49;5.65;;;3.15;;
35971;SDS011;22052;0.000;0.000;2022-12-20T04:21:28;6.53;;;3.35;;
35971;SDS011;22052;0.000;0.000;2022-12-20T04:23:55;5.97;;;2.90;;
35971;SDS011;22052;0.000;0.000;2022-12-20T04:26:24;5.38;;;3.03;;
35971;SDS011;22052;0.000;0.000;2022-12-20T04:28:51;4.97;;;2.75;;
35971;SDS011;22052;0.000;0.000;2022-12-20T04:31:19;6.05;;;3.13;;
35971;SDS011;22052;0.000;0.000;2022-12-20T04:33:47;5.30;;;3.08;;
35971;SDS011;22052;0.000;0.000;2022-12-20T04:36:14;4.82;;;2.83;;
35971;SDS011;22052;0.000;0.000;2022-12-20T04:38:42;5.07;;;3.08;;
35971;SDS011;22052;0.000;0.000;2022-12-20T04:41:10;5.50;;;3.03;;
35971;SDS011;22052;0.000;0.000;2022-12-20T04:43:50;4.07;;;2.70;;
35971;SDS011;22052;0.000;0.000;2022-12-20T04:46:18;4.97;;;2.60;;
35971;SDS011;22052;0.000;0.000;2022-12-20T04:48:47;5.88;;;3.00;;
35971;SDS011;22052;0.000;0.000;2022-12-20T04:51:14;7.03;;;3.13;;
35971;SDS011;22052;0.000;0.000;2022-12-20T04:53:48;5.80;;;3.40;;
35971;SDS011;22052;0.000;0.000;2022-12-20T04:56:19;5.00;;;2.97;;
35971;SDS011;22052;0.000;0.000;2022-12-20T04:58:47;6.20;;;3.28;;
35971;SDS011;22052;0.000;0.000;2022-12-20T05:01:17;5.60;;;2.78;;
35971;SDS011;22052;0.000;0.000;2022-12-20T05:03:45;4.63;;;2.80;;
35971;SDS011;22052;0.000;0.000;2022-12-20T05:06:13;5.72;;;3.10;;
35971;SDS011;22052;0.000;0.000;2022-12-20T05:08:40;6.05;;;3.00;;
35971;SDS011;22052;0.000;0.000;2022-12-20T05:11:08;6.82;;;2.90;;
35971;SDS011;22052;0.000;0.000;2022-12-20T05:13:37;6.60;;;3.45;;
35971;SDS011;22052;0.000;0.000;2022-12-20T05:16:05;5.28;;;3.10;;
35971;SDS011;22052;0.000;0.000;2022-12-20T05:18:33;6.28;;;3.08;;
35971;SDS011;22052;0.000;0.000;2022-12-20T05:21:01;5.03;;;2.70;;
35971;SDS011;22052;0.000;0.000;2022-12-20T05:23:47;4.90;;;2.72;;
35971;SDS011;22052;0.000;0.000;2022-12-20T05:26:35;9.38;;;2.78;;
35971;SDS011;22052;0.000;0.000;2022-12-20T05:29:05;5.55;;;2.88;;
35971;SDS011;22052;0.000;0.000;2022-12-20T05:31:33;7.15;;;2.85;;
35971;SDS011;22052;0.000;0.000;2022-12-20T05:34:00;4.82;;;2.80;;
35971;SDS011;22052;0.000;0.000;2022-12-20T05:36:28;5.15;;;2.80;;
35971;SDS011;22052;0.000;0.000;2022-12-20T05:38:56;5.22;;;3.00;;
35971;SDS011;22052;0.000;0.000;2022-12-20T05:41:30;4.97;;;2.88;;
35971;SDS011;22052;0.000;0.000;2022-12-20T05:44:01;7.38;;;3.40;;
35971;SDS011;22052;0.000;0.000;2022-12-20T05:46:48;6.55;;;3.05;;
35971;SDS011;22052;0.000;0.000;2022-12-20T05:49:16;10.75;;;3.60;;
35971;SDS011;22052;0.000;0.000;2022-12-20T05:51:45;4.82;;;2.72;;
35971;SDS011;22052;0.000;0.000;2022-12-20T05:54:18;6.20;;;2.88;;
35971;SDS011;22052;0.000;0.000;2022-12-20T05:56:45;9.73;;;3.33;;
35971;SDS011;22052;0.000;0.000;2022-12-20T05:59:13;6.68;;;3.42;;
35971;SDS011;22052;0.000;0.000;2022-12-20T06:01:42;7.50;;;3.30;;
35971;SDS011;22052;0.000;0.000;2022-12-20T06:04:09;8.18;;;4.00;;
35971;SDS011;22052;0.000;0.000;2022-12-20T06:06:38;5.88;;;3.22;;
35971;SDS011;22052;0.000;0.000;2022-12-20T06:09:07;6.47;;;3.28;;
35971;SDS011;22052;0.000;0.000;2022-12-20T06:11:37;5.80;;;3.65;;
35971;SDS011;22052;0.000;0.000;2022-12-20T06:14:07;6.57;;;3.50;;
35971;SDS011;22052;0.000;0.000;2022-12-20T06:16:36;6.40;;;3.15;;
35971;SDS011;22052;0.000;0.000;2022-12-20T06:19:18;11.65;;;3.80;;
35971;SDS011;22052;0.000;0.000;2022-12-20T06:21:51;6.50;;;3.28;;
35971;SDS011;22052;0.000;0.000;2022-12-20T06:24:18;6.30;;;3.17;;
35971;SDS011;22052;0.000;0.000;2022-12-20T06:26:52;9.07;;;3.33;;
35971;SDS011;22052;0.000;0.000;2022-12-20T06:29:21;8.15;;;3.45;;
35971;SDS011;22052;0.000;0.000;2022-12-20T06:32:15;7.77;;;3.53;;
35971;SDS011;22052;0.000;0.000;2022-12-20T06:34:56;7.15;;;3.65;;
35971;SDS011;22052;0.000;0.000;2022-12-20T06:37:29;9.07;;;3.47;;
35971;SDS011;22052;0.000;0.000;2022-12-20T06:39:57;6.93;;;3.38;;
35971;SDS011;22052;0.000;0.000;2022-12-20T06:42:27;7.57;;;3.58;;
35971;SDS011;22052;0.000;0.000;2022-12-20T06:44:55;9.30;;;3.75;;
35971;SDS011;22052;0.000;0.000;2022-12-20T06:47:28;11.48;;;3.70;;
35971;SDS011;22052;0.000;0.000;2022-12-20T06:50:02;8.90;;;3.38;;
35971;SDS011;22052;0.000;0.000;2022-12-20T06:52:33;7.15;;;3.70;;
35971;SDS011;22052;0.000;0.000;2022-12-20T06:55:02;8.18;;;3.40;;
35971;SDS011;22052;0.000;0.000;2022-12-20T06:57:58;8.35;;;3.70;;
35971;SDS011;22052;0.000;0.000;2022-12-20T07:04:02;9.60;;;3.75;;
35971;SDS011;22052;0.000;0.000;2022-12-20T07:06:36;9.95;;;3.30;;
35971;SDS011;22052;0.000;0.000;2022-12-20T07:09:08;9.65;;;3.50;;
35971;SDS011;22052;0.000;0.000;2022-12-20T07:11:37;8.35;;;3.72;;
35971;SDS011;22052;0.000;0.000;2022-12-20T07:14:16;13.20;;;3.80;;
35971;SDS011;22052;0.000;0.000;2022-12-20T07:16:51;9.30;;;3.47;;
35971;SDS011;22052;0.000;0.000;2022-12-20T07:19:19;9.05;;;3.60;;
35971;SDS011;22052;0.000;0.000;2022-12-20T07:22:02;9.18;;;3.78;;
35971;SDS011;22052;0.000;0.000;2022-12-20T07:24:35;8.23;;;3.78;;
35971;SDS011;22052;0.000;0.000;2022-12-20T07:27:13;9.85;;;3.78;;
35971;SDS011;22052;0.000;0.000;2022-12-20T07:29:50;9.95;;;4.35;;
35971;SDS011;22052;0.000;0.000;2022-12-20T07:32:19;6.72;;;3.97;;
35971;SDS011;22052;0.000;0.000;2022-12-20T07:34:47;10.40;;;4.00;;
35971;SDS011;22052;0.000;0.000;2022-12-20T07:37:14;6.68;;;3.40;;
35971;SDS011;22052;0.000;0.000;2022-12-20T07:39:42;8.10;;;3.80;;
35971;SDS011;22052;0.000;0.000;2022-12-20T07:42:14;10.02;;;3.88;;
35971;SDS011;22052;0.000;0.000;2022-12-20T07:44:45;11.15;;;4.20;;
35971;SDS011;22052;0.000;0.000;2022-12-20T07:47:14;9.63;;;3.78;;
35971;SDS011;22052;0.000;0.000;2022-12-20T07:49:42;7.97;;;3.88;;
35971;SDS011;22052;0.000;0.000;2022-12-20T07:52:10;8.32;;;4.25;;
35971;SDS011;22052;0.000;0.000;2022-12-20T07:54:43;9.13;;;3.70;;
35971;SDS011;22052;0.000;0.000;2022-12-20T07:57:24;10.70;;;4.00;;
35971;SDS011;22052;0.000;0.000;2022-12-20T08:00:26;13.45;;;4.35;;
35971;SDS011;22052;0.000;0.000;2022-12-20T08:05:40;14.40;;;4.75;;
35971;SDS011;22052;0.000;0.000;2022-12-20T08:08:18;12.63;;;4.13;;
35971;SDS011;22052;0.000;0.000;2022-12-20T08:10:59;10.80;;;4.30;;
35971;SDS011;22052;0.000;0.000;2022-12-20T08:13:30;10.80;;;4.53;;
35971;SDS011;22052;0.000;0.000;2022-12-20T08:16:08;12.85;;;4.47;;
35971;SDS011;22052;0.000;0.000;2022-12-20T08:18:48;14.18;;;4.78;;
35971;SDS011;22052;0.000;0.000;2022-12-20T08:21:18;11.73;;;4.20;;
35971;SDS011;22052;0.000;0.000;2022-12-20T08:23:45;13.57;;;4.47;;
35971;SDS011;22052;0.000;0.000;2022-12-20T08:26:30;11.90;;;4.05;;
35971;SDS011;22052;0.000;0.000;2022-12-20T08:29:18;12.38;;;4.07;;
35971;SDS011;22052;0.000;0.000;2022-12-20T08:31:54;12.25;;;4.45;;
35971;SDS011;22052;0.000;0.000;2022-12-20T08:34:24;11.20;;;4.28;;
35971;SDS011;22052;0.000;0.000;2022-12-20T08:37:07;11.07;;;4.10;;
35971;SDS011;22052;0.000;0.000;2022-12-20T08:39:41;10.68;;;4.47;;
35971;SDS011;22052;0.000;0.000;2022-12-20T08:42:10;11.82;;;4.05;;
35971;SDS011;22052;0.000;0.000;2022-12-20T08:44:41;10.20;;;4.25;;
35971;SDS011;22052;0.000;0.000;2022-12-20T08:47:10;10.63;;;4.35;;
35971;SDS011;22052;0.000;0.000;2022-12-20T08:49:38;10.20;;;4.38;;
35971;SDS011;22052;0.000;0.000;2022-12-20T08:52:09;10.02;;;3.95;;
35971;SDS011;22052;0.000;0.000;2022-12-20T08:54:39;12.23;;;4.63;;
35971;SDS011;22052;0.000;0.000;2022-12-20T08:57:07;13.05;;;4.53;;
35971;SDS011;22052;0.000;0.000;2022-12-20T08:59:41;8.32;;;4.20;;
35971;SDS011;22052;0.000;0.000;2022-12-20T09:02:12;7.57;;;3.83;;
35971;SDS011;22052;0.000;0.000;2022-12-20T09:04:46;9.80;;;4.03;;
35971;SDS011;22052;0.000;0.000;2022-12-20T09:07:19;10.50;;;4.25;;
35971;SDS011;22052;0.000;0.000;2022-12-20T09:09:47;13.68;;;4.05;;
35971;SDS011;22052;0.000;0.000;2022-12-20T09:12:16;9.43;;;4.35;;
35971;SDS011;22052;0.000;0.000;2022-12-20T09:21:05;9.38;;;4.03;;
35971;SDS011;22052;0.000;0.000;2022-12-20T09:23:39;8.38;;;3.92;;
35971;SDS011;22052;0.000;0.000;2022-12-20T09:26:20;9.23;;;4.45;;
35971;SDS011;22052;0.000;0.000;2022-12-20T09:28:49;11.70;;;4.68;;
35971;SDS011;22052;0.000;0.000;2022-12-20T09:31:31;10.68;;;4.28;;
35971;SDS011;22052;0.000;0.000;2022-12-20T09:34:13;11.43;;;4.65;;
35971;SDS011;22052;0.000;0.000;2022-12-20T09:36:44;9.70;;;3.88;;
35971;SDS011;22052;0.000;0.000;2022-12-20T09:39:19;10.35;;;3.95;;
35971;SDS011;22052;0.000;0.000;2022-12-20T09:41:48;9.82;;;4.07;;
35971;SDS011;22052;0.000;0.000;2022-12-20T09:44:26;10.02;;;3.95;;
35971;SDS011;22052;0.000;0.000;2022-12-20T09:47:25;10.77;;;4.45;;
35971;SDS011;22052;0.000;0.000;2022-12-20T09:49:58;10.32;;;5.03;;
35971;SDS011;22052;0.000;0.000;2022-12-20T09:52:53;10.65;;;4.35;;
35971;SDS011;22052;0.000;0.000;2022-12-20T09:58:18;8.30;;;3.83;;
35971;SDS011;22052;0.000;0.000;2022-12-20T10:00:58;13.48;;;4.78;;
35971;SDS011;22052;0.000;0.000;2022-12-20T10:09:44;9.70;;;4.22;;
35971;SDS011;22052;0.000;0.000;2022-12-20T10:31:06;12.25;;;4.47;;
35971;SDS011;22052;0.000;0.000;2022-12-20T10:33:36;12.77;;;4.37;;
35971;SDS011;22052;0.000;0.000;2022-12-20T10:39:10;9.23;;;4.00;;
35971;SDS011;22052;0.000;0.000;2022-12-20T10:44:55;13.52;;;4.72;;
35971;SDS011;22052;0.000;0.000;2022-12-20T10:47:59;10.85;;;4.10;;
35971;SDS011;22052;0.000;0.000;2022-12-20T10:50:32;10.32;;;3.95;;
35971;SDS011;22052;0.000;0.000;2022-12-20T10:53:18;10.55;;;4.32;;
35971;SDS011;22052;0.000;0.000;2022-12-20T10:56:21;11.85;;;4.40;;
35971;SDS011;22052;0.000;0.000;2022-12-20T11:18:05;10.77;;;4.45;;
35971;SDS011;22052;0.000;0.000;2022-12-20T11:56:36;13.73;;;4.82;;
35971;SDS011;22052;0.000;0.000;2022-12-20T12:08:00;12.30;;;4.22;;
35971;SDS011;22052;0.000;0.000;2022-12-20T12:17:04;11.25;;;4.47;;
35971;SDS011;22052;0.000;0.000;2022-12-20T12:19:40;12.50;;;3.97;;
35971;SDS011;22052;0.000;0.000;2022-12-20T12:24:51;11.10;;;4.43;;
35971;SDS011;22052;0.000;0.000;2022-12-20T12:27:27;12.35;;;4.40;;
35971;SDS011;22052;0.000;0.000;2022-12-20T12:29:58;14.55;;;4.25;;
35971;SDS011;22052;0.000;0.000;2022-12-20T13:11:55;10.55;;;4.07;;
35971;SDS011;22052;0.000;0.000;2022-12-20T13:19:57;9.82;;;3.80;;
35971;SDS011;22052;0.000;0.000;2022-12-20T13:22:27;9.75;;;4.10;;
35971;SDS011;22052;0.000;0.000;2022-12-20T13:27:31;10.30;;;3.97;;
35971;SDS011;22052;0.000;0.000;2022-12-20T13:37:54;12.20;;;4.50;;
35971;SDS011;22052;0.000;0.000;2022-12-20T13:43:34;11.77;;;3.97;;
35971;SDS011;22052;0.000;0.000;2022-12-20T13:49:00;10.63;;;3.90;;
35971;SDS011;22052;0.000;0.000;2022-12-20T13:51:36;9.32;;;3.70;;
35971;SDS011;22052;0.000;0.000;2022-12-20T13:54:20;7.45;;;3.63;;
35971;SDS011;22052;0.000;0.000;2022-12-20T13:57:02;10.15;;;4.20;;
35971;SDS011;22052;0.000;0.000;2022-12-20T13:59:37;11.18;;;3.80;;
35971;SDS011;22052;0.000;0.000;2022-12-20T14:02:11;8.63;;;3.70;;
35971;SDS011;22052;0.000;0.000;2022-12-20T14:05:04;10.95;;;3.75;;
35971;SDS011;22052;0.000;0.000;2022-12-20T14:07:57;10.70;;;3.75;;
35971;SDS011;22052;0.000;0.000;2022-12-20T14:10:34;9.25;;;3.70;;
35971;SDS011;22052;0.000;0.000;2022-12-20T14:13:21;12.77;;;3.80;;
35971;SDS011;22052;0.000;0.000;2022-12-20T14:15:51;9.25;;;3.50;;
35971;SDS011;22052;0.000;0.000;2022-12-20T14:18:27;11.65;;;4.40;;
35971;SDS011;22052;0.000;0.000;2022-12-20T14:21:05;7.80;;;3.58;;
35971;SDS011;22052;0.000;0.000;2022-12-20T14:23:39;8.48;;;3.50;;
35971;SDS011;22052;0.000;0.000;2022-12-20T14:26:12;7.35;;;3.63;;
35971;SDS011;22052;0.000;0.000;2022-12-20T14:28:53;12.95;;;4.00;;
35971;SDS011;22052;0.000;0.000;2022-12-20T14:42:36;9.95;;;3.75;;
35971;SDS011;22052;0.000;0.000;2022-12-20T14:45:17;8.37;;;3.67;;
35971;SDS011;22052;0.000;0.000;2022-12-20T14:47:50;13.32;;;3.88;;
35971;SDS011;22052;0.000;0.000;2022-12-20T14:53:35;8.27;;;3.53;;
35971;SDS011;22052;0.000;0.000;2022-12-20T14:59:28;6.85;;;3.55;;
35971;SDS011;22052;0.000;0.000;2022-12-20T15:02:04;8.18;;;3.05;;
35971;SDS011;22052;0.000;0.000;2022-12-20T15:04:54;10.73;;;3.38;;
35971;SDS011;22052;0.000;0.000;2022-12-20T15:07:30;7.38;;;4.00;;
35971;SDS011;22052;0.000;0.000;2022-12-20T15:10:00;12.82;;;4.20;;
35971;SDS011;22052;0.000;0.000;2022-12-20T15:12:28;9.77;;;3.58;;
35971;SDS011;22052;0.000;0.000;2022-12-20T15:17:37;10.45;;;3.03;;
35971;SDS011;22052;0.000;0.000;2022-12-20T15:20:14;11.07;;;4.18;;
35971;SDS011;22052;0.000;0.000;2022-12-20T15:25:31;8.82;;;3.40;;
35971;SDS011;22052;0.000;0.000;2022-12-20T15:28:04;13.75;;;3.97;;
35971;SDS011;22052;0.000;0.000;2022-12-20T15:30:35;10.25;;;4.13;;
35971;SDS011;22052;0.000;0.000;2022-12-20T15:33:02;8.05;;;3.38;;
35971;SDS011;22052;0.000;0.000;2022-12-20T15:35:31;11.77;;;3.58;;
35971;SDS011;22052;0.000;0.000;2022-12-20T15:37:59;12.73;;;4.10;;
35971;SDS011;22052;0.000;0.000;2022-12-20T15:40:27;10.75;;;3.70;;
35971;SDS011;22052;0.000;0.000;2022-12-20T15:42:55;14.50;;;3.72;;
35971;SDS011;22052;0.000;0.000;2022-12-20T15:45:25;13.02;;;3.67;;
35971;SDS011;22052;0.000;0.000;2022-12-20T15:48:09;11.70;;;3.80;;
35971;SDS011;22052;0.000;0.000;2022-12-20T15:50:46;11.73;;;3.90;;
35971;SDS011;22052;0.000;0.000;2022-12-20T15:53:18;10.32;;;3.97;;
35971;SDS011;22052;0.000;0.000;2022-12-20T15:55:51;11.35;;;3.85;;
35971;SDS011;22052;0.000;0.000;2022-12-20T15:58:20;9.52;;;3.42;;
35971;SDS011;22052;0.000;0.000;2022-12-20T16:00:54;10.65;;;4.55;;
35971;SDS011;22052;0.000;0.000;2022-12-20T16:03:30;16.08;;;3.55;;
35971;SDS011;22052;0.000;0.000;2022-12-20T16:05:59;10.85;;;3.92;;
35971;SDS011;22052;0.000;0.000;2022-12-20T16:08:27;9.88;;;3.70;;
35971;SDS011;22052;0.000;0.000;2022-12-20T16:10:57;8.48;;;3.83;;
35971;SDS011;22052;0.000;0.000;2022-12-20T16:13:27;6.53;;;2.85;;
35971;SDS011;22052;0.000;0.000;2022-12-20T16:16:03;10.82;;;3.75;;
35971;SDS011;22052;0.000;0.000;2022-12-20T16:18:32;9.75;;;4.00;;
35971;SDS011;22052;0.000;0.000;2022-12-20T16:20:59;10.57;;;3.45;;
35971;SDS011;22052;0.000;0.000;2022-12-20T16:23:27;10.43;;;3.35;;
35971;SDS011;22052;0.000;0.000;2022-12-20T16:25:56;17.73;;;4.03;;
35971;SDS011;22052;0.000;0.000;2022-12-20T16:28:25;11.57;;;4.20;;
35971;SDS011;22052;0.000;0.000;2022-12-20T16:30:54;7.88;;;3.17;;
35971;SDS011;22052;0.000;0.000;2022-12-20T16:33:29;9.80;;;3.95;;
35971;SDS011;22052;0.000;0.000;2022-12-20T16:35:57;14.98;;;3.47;;
35971;SDS011;22052;0.000;0.000;2022-12-20T16:38:25;11.20;;;3.95;;
35971;SDS011;22052;0.000;0.000;2022-12-20T16:40:53;11.82;;;4.00;;
35971;SDS011;22052;0.000;0.000;2022-12-20T16:43:21;8.55;;;3.42;;
35971;SDS011;22052;0.000;0.000;2022-12-20T16:45:50;12.48;;;3.70;;
35971;SDS011;22052;0.000;0.000;2022-12-20T16:48:18;12.43;;;3.75;;
35971;SDS011;22052;0.000;0.000;2022-12-20T16:50:46;12.10;;;4.07;;
35971;SDS011;22052;0.000;0.000;2022-12-20T16:53:14;13.23;;;3.92;;
35971;SDS011;22052;0.000;0.000;2022-12-20T16:55:43;9.52;;;3.63;;
35971;SDS011;22052;0.000;0.000;2022-12-20T16:58:11;9.32;;;3.55;;
35971;SDS011;22052;0.000;0.000;2022-12-20T17:00:39;11.20;;;4.25;;
35971;SDS011;22052;0.000;0.000;2022-12-20T17:03:08;10.23;;;4.00;;
35971;SDS011;22052;0.000;0.000;2022-12-20T17:05:36;12.43;;;3.80;;
35971;SDS011;22052;0.000;0.000;2022-12-20T17:10:57;9.85;;;3.72;;
35971;SDS011;22052;0.000;0.000;2022-12-20T17:13:24;10.93;;;3.92;;
35971;SDS011;22052;0.000;0.000;2022-12-20T17:15:53;9.90;;;3.60;;
35971;SDS011;22052;0.000;0.000;2022-12-20T17:18:21;10.25;;;4.30;;
35971;SDS011;22052;0.000;0.000;2022-12-20T17:20:49;13.15;;;4.30;;
35971;SDS011;22052;0.000;0.000;2022-12-20T17:23:17;12.27;;;3.60;;
35971;SDS011;22052;0.000;0.000;2022-12-20T17:25:45;8.82;;;3.67;;
35971;SDS011;22052;0.000;0.000;2022-12-20T17:28:13;8.25;;;3.80;;
35971;SDS011;22052;0.000;0.000;2022-12-20T17:30:40;17.63;;;4.28;;
35971;SDS011;22052;0.000;0.000;2022-12-20T17:33:15;10.18;;;3.58;;
35971;SDS011;22052;0.000;0.000;2022-12-20T17:35:43;10.55;;;3.33;;
35971;SDS011;22052;0.000;0.000;2022-12-20T17:38:11;10.63;;;3.92;;
35971;SDS011;22052;0.000;0.000;2022-12-20T17:40:40;9.93;;;3.83;;
35971;SDS011;22052;0.000;0.000;2022-12-20T17:43:09;11.98;;;3.53;;
35971;SDS011;22052;0.000;0.000;2022-12-20T17:45:40;10.02;;;3.78;;
35971;SDS011;22052;0.000;0.000;2022-12-20T17:48:08;15.73;;;4.70;;
35971;SDS011;22052;0.000;0.000;2022-12-20T17:50:54;13.02;;;4.38;;
35971;SDS011;22052;0.000;0.000;2022-12-20T17:53:32;8.55;;;3.38;;
35971;SDS011;22052;0.000;0.000;2022-12-20T17:56:01;13.85;;;3.95;;
35971;SDS011;22052;0.000;0.000;2022-12-20T17:58:28;10.70;;;4.15;;
35971;SDS011;22052;0.000;0.000;2022-12-20T18:00:55;9.90;;;3.97;;
35971;SDS011;22052;0.000;0.000;2022-12-20T18:03:22;11.60;;;4.10;;
35971;SDS011;22052;0.000;0.000;2022-12-20T18:05:49;13.45;;;4.10;;
35971;SDS011;22052;0.000;0.000;2022-12-20T18:08:16;20.42;;;3.90;;
35971;SDS011;22052;0.000;0.000;2022-12-20T18:10:47;12.40;;;3.70;;
35971;SDS011;22052;0.000;0.000;2022-12-20T18:13:17;12.88;;;3.88;;
35971;SDS011;22052;0.000;0.000;2022-12-20T18:15:46;12.85;;;4.68;;
35971;SDS011;22052;0.000;0.000;2022-12-20T18:18:14;11.85;;;4.07;;
35971;SDS011;22052;0.000;0.000;2022-12-20T18:20:42;9.80;;;3.88;;
35971;SDS011;22052;0.000;0.000;2022-12-20T18:23:10;15.13;;;4.13;;
35971;SDS011;22052;0.000;0.000;2022-12-20T18:25:37;9.75;;;3.88;;
35971;SDS011;22052;0.000;0.000;2022-12-20T18:28:05;11.20;;;4.47;;
35971;SDS011;22052;0.000;0.000;2022-12-20T18:30:32;15.35;;;4.00;;
35971;SDS011;22052;0.000;0.000;2022-12-20T18:33:01;11.40;;;4.20;;
35971;SDS011;22052;0.000;0.000;2022-12-20T18:35:29;10.88;;;3.63;;
35971;SDS011;22052;0.000;0.000;2022-12-20T18:37:56;12.45;;;4.07;;
35971;SDS011;22052;0.000;0.000;2022-12-20T18:40:24;10.15;;;3.92;;
35971;SDS011;22052;0.000;0.000;2022-12-20T18:42:51;10.23;;;3.65;;
35971;SDS011;22052;0.000;0.000;2022-12-20T18:45:18;14.02;;;4.10;;
35971;SDS011;22052;0.000;0.000;2022-12-20T18:47:48;11.75;;;4.30;;
35971;SDS011;22052;0.000;0.000;2022-12-20T18:50:15;10.70;;;3.80;;
35971;SDS011;22052;0.000;0.000;2022-12-20T18:52:43;11.32;;;3.88;;
35971;SDS011;22052;0.000;0.000;2022-12-20T18:55:12;10.05;;;3.30;;
35971;SDS011;22052;0.000;0.000;2022-12-20T18:57:41;13.27;;;3.97;;
35971;SDS011;22052;0.000;0.000;2022-12-20T19:00:08;13.60;;;4.60;;
35971;SDS011;22052;0.000;0.000;2022-12-20T19:02:35;12.77;;;3.92;;
35971;SDS011;22052;0.000;0.000;2022-12-20T19:05:04;14.93;;;3.90;;
35971;SDS011;22052;0.000;0.000;2022-12-20T19:07:32;9.82;;;3.97;;
35971;SDS011;22052;0.000;0.000;2022-12-20T19:10:00;10.30;;;3.67;;